Bellevue, NE (68147)

2:54 AM CST on November 27, 2014 (GMT -0600)
North Bellevue/Kennedy Freeway | Change Station
CLOSE
Current Station
Personal Weather Station
Location: Bellevue, NE
Elevation: 1178 ft
Nearby Weather Stations

Elev 1178 ft 41.19 °N, 95.94 °W | Updated 8 seconds ago

Partly Cloudy
Partly Cloudy
16.5 °F
Feels Like 12 °F
N
3.1
Wind Variable Wind from NW
Gusts 6.9 mph

Today
High -- | Low -- °F
--% Chance of Precip.
Yesterday
High -- | Low -- °F
Precip. -- in
7:25 AM 4:57 PM
Waxing Crescent, 27% visible
Pressure 30.49 in
Visibility 10.0 miles
Clouds Scattered Clouds 1600 ft
Mostly Cloudy 6500 ft
Windchill 12 °F
Dew Point 9 °F
Humidity 71%
Rainfall 0.00 in
Snow Depth Not available.
UV 0 out of 12
Pollen .10 out of 12
Air Quality Not available.
Flu Activity Not available.
SPECI KOFF 270812Z AUTO 32008KT 10SM SCT016 BKN065 M08/M11 A3049 RMK AO2

More Conditions Fewer Conditions

Pressure 30.49 in
Visibility 10.0 miles
Clouds Scattered Clouds 1600 ft
Mostly Cloudy 6500 ft
Windchill 12 °F
Dew Point 9 °F
Humidity 71%
Rainfall 0.00 in
Snow Depth Not available.
UV 0 out of 12
Pollen .10 out of 12
Air Quality Not available.
Flu Activity Not available.
SPECI KOFF 270812Z AUTO 32008KT 10SM SCT016 BKN065 M08/M11 A3049 RMK AO2

More Conditions Fewer Conditions

10-Day Weather Forecast

Almanac

Astronomy

Nov. 27, 2014 Rise Set
Actual Time
Civil Twilight
Nautical Twilight
Astronomical Twilight
Moon
Length of Visible Light
Length of Day
Tomorrow will be .
, % of the Moon is Illuminated

Today's Extremes

State Highs State Lows

Community

WunderPhotos

Upload Photos

1,773,965 photos uploaded!

WunderBlogs® & News

Nearby

Air Quality

  Air Quality AQ Index Pollutant
Not available.

Snow Depth

Station Depth Elevation

Earthquake Activity

City Distance Mag. Time & Date
Minimum magnitude displayed is 2.5.

Coastal Water Temperatures

Place Temperature

Nearby Weather Stations